Time;durP1;ratioP1;P1;durP2;ratioP2;P2;SDS_P1;SDS_P2;PMS_P1;PMS_P2;Temp;Humidity;BMP_temperature;BMP_pressure;BME280_temperature;BME280_humidity;BME280_pressure;Samples;Min_cycle;Max_cycle;Signal;HPM_P1;HPM_P2
2022/07/13 00:00:36;;;;;;;;;6.00;5.67;;;;;28.78;25.97;101634.63;5014372;28;45531;-62
2022/07/13 00:03:01;;;;;;;;;7.33;7.33;;;;;28.76;26.23;101640.16;5014601;28;45315;-65
2022/07/13 00:05:27;;;;;;;;;6.00;5.00;;;;;28.73;26.05;101639.38;5014491;28;45647;-65
2022/07/13 00:07:52;;;;;;;;;4.33;4.33;;;;;28.65;26.34;101632.28;5012518;28;47190;-64
2022/07/13 00:10:17;;;;;;;;;6.00;6.00;;;;;28.67;26.26;101637.72;5014225;28;45784;-62
2022/07/13 00:12:43;;;;;;;;;6.67;6.67;;;;;28.58;25.96;101630.72;5014582;28;45634;-64
2022/07/13 00:15:09;;;;;;;;;4.33;4.33;;;;;28.66;26.11;101641.47;5014486;28;45506;-62
2022/07/13 00:17:34;;;;;;;;;5.00;5.00;;;;;28.54;25.84;101614.34;5014140;28;48274;-64
2022/07/13 00:20:07;;;;;;;;;2.67;2.67;;;;;28.58;26.07;101636.22;4989112;27;45401;-64
2022/07/13 00:22:33;;;;;;;;;7.33;4.00;;;;;28.64;26.55;101635.09;4987121;27;45355;-62
2022/07/13 00:24:58;;;;;;;;;5.33;4.33;;;;;28.29;25.95;101584.97;4986965;28;45373;-64
2022/07/13 00:27:24;;;;;;;;;5.67;4.67;;;;;28.63;26.47;101633.31;4987490;28;45484;-63
2022/07/13 00:29:49;;;;;;;;;6.67;5.00;;;;;28.60;26.09;101636.16;4986772;28;45414;-65
2022/07/13 00:32:15;;;;;;;;;5.67;5.67;;;;;28.53;25.99;101634.53;4987262;28;45570;-64
2022/07/13 00:34:40;;;;;;;;;5.33;4.33;;;;;28.59;26.53;101637.09;4987310;28;45446;-64
2022/07/13 00:37:06;;;;;;;;;5.00;4.00;;;;;28.56;26.49;101634.44;4987547;28;45459;-61
2022/07/13 00:39:32;;;;;;;;;8.00;6.33;;;;;28.54;26.27;101633.59;4986796;28;45316;-63
2022/07/13 00:41:57;;;;;;;;;4.67;4.67;;;;;28.52;26.44;101624.50;4987021;28;45373;-64
2022/07/13 00:44:22;;;;;;;;;8.33;6.00;;;;;28.35;26.83;101601.25;4987083;28;45352;-64
2022/07/13 00:46:53;;;;;;;;;9.33;7.00;;;;;28.47;26.34;101631.03;4987386;28;45762;-62
2022/07/13 00:49:19;;;;;;;;;6.67;6.00;;;;;28.46;26.83;101621.03;4987074;28;46075;-64
2022/07/13 00:51:44;;;;;;;;;7.00;7.00;;;;;28.35;26.88;101612.25;4986404;28;45315;-66
2022/07/13 00:54:10;;;;;;;;;13.00;12.67;;;;;28.42;26.41;101619.31;4986948;28;45458;-62
2022/07/13 00:56:36;;;;;;;;;16.67;14.33;;;;;28.28;26.63;101594.19;4985359;28;45569;-65
2022/07/13 00:59:05;;;;;;;;;14.00;12.67;;;;;28.36;26.57;101616.75;4986616;28;45445;-64
2022/07/13 01:01:30;;;;;;;;;25.67;18.00;;;;;28.30;26.57;101620.63;4986874;28;45472;-64
2022/07/13 01:03:56;;;;;;;;;18.00;16.00;;;;;28.30;26.82;101611.50;4986598;28;45339;-64
2022/07/13 01:06:21;;;;;;;;;22.67;18.00;;;;;28.27;27.15;101603.34;4986968;28;45337;-65
2022/07/13 01:08:47;;;;;;;;;20.00;15.25;;;;;28.27;26.79;101611.59;4986864;28;45742;-65
2022/07/13 01:11:12;;;;;;;;;20.75;16.00;;;;;28.25;26.99;101611.66;4986540;28;45354;-65
2022/07/13 01:13:38;;;;;;;;;17.67;13.67;;;;;28.23;27.26;101609.88;4986868;27;45497;-65
2022/07/13 01:16:04;;;;;;;;;16.00;13.33;;;;;28.10;27.26;101590.19;4986997;27;45458;-63
2022/07/13 01:18:30;;;;;;;;;12.67;10.33;;;;;27.96;27.67;101574.16;4986336;28;45849;-63
2022/07/13 01:20:57;;;;;;;;;15.67;10.67;;;;;28.16;27.24;101609.19;4986715;28;45440;-64
2022/07/13 01:23:23;;;;;;;;;8.33;8.33;;;;;28.14;27.43;101605.63;4986661;28;45456;-64
2022/07/13 01:25:48;;;;;;;;;10.33;9.67;;;;;28.03;27.75;101595.00;4986570;28;45250;-64
2022/07/13 01:28:14;;;;;;;;;15.67;11.67;;;;;27.98;27.33;101585.97;4986123;28;46008;-65
2022/07/13 01:30:39;;;;;;;;;12.33;11.67;;;;;28.09;27.71;101611.25;4977738;28;46341;-64
2022/07/13 01:33:04;;;;;;;;;8.33;8.33;;;;;28.08;27.46;101612.22;4973499;28;45437;-63
2022/07/13 01:35:30;;;;;;;;;11.33;11.33;;;;;28.05;27.37;101606.81;4973924;28;45428;-64
2022/07/13 01:37:56;;;;;;;;;15.33;13.33;;;;;28.04;27.75;101609.63;4973008;28;46117;-65
2022/07/13 01:40:22;;;;;;;;;14.33;12.33;;;;;27.91;27.66;101584.38;4973644;28;45543;-64
2022/07/13 01:42:50;;;;;;;;;10.33;10.33;;;;;27.96;27.61;101598.00;4973448;28;45425;-63
2022/07/13 01:45:17;;;;;;;;;15.67;12.33;;;;;27.99;27.85;101601.53;4973452;28;45619;-64
2022/07/13 01:47:46;;;;;;;;;20.00;16.67;;;;;27.97;28.06;101599.75;4972907;28;46989;-62
2022/07/13 01:50:13;;;;;;;;;14.00;14.00;;;;;27.97;27.74;101605.25;4972951;28;45412;-65
2022/07/13 01:52:38;;;;;;;;;17.33;14.33;;;;;27.93;27.83;101598.97;4972906;28;45443;-64
2022/07/13 01:55:05;;;;;;;;;12.67;12.00;;;;;27.91;27.88;101606.34;4973092;28;45482;-62
2022/07/13 01:57:31;;;;;;;;;16.00;13.33;;;;;27.88;27.37;101598.19;4973260;28;45296;-64
2022/07/13 02:00:03;;;;;;;;;14.67;12.67;;;;;27.88;27.20;101598.19;4972927;28;45349;-65
2022/07/13 02:02:28;;;;;;;;;16.67;13.33;;;;;27.87;27.68;101594.56;4971856;28;45495;-63
2022/07/13 02:04:57;;;;;;;;;13.33;12.00;;;;;27.88;27.44;101592.69;4973406;28;45649;-62
2022/07/13 02:07:23;;;;;;;;;14.67;10.00;;;;;27.89;27.74;101586.28;4972552;28;45789;-65
2022/07/13 02:09:49;;;;;;;;;15.00;11.00;;;;;27.87;27.58;101583.56;4972893;28;45411;-64
2022/07/13 02:12:16;;;;;;;;;19.33;14.00;;;;;27.90;27.83;101588.97;4972916;28;45268;-64
2022/07/13 02:14:41;;;;;;;;;9.00;9.00;;;;;27.91;27.70;101590.75;4973272;28;45334;-64
2022/07/13 02:17:07;;;;;;;;;10.33;9.33;;;;;27.93;27.73;101587.97;4972540;28;45961;-65
2022/07/13 02:19:32;;;;;;;;;16.00;13.00;;;;;27.92;27.60;101577.94;4972475;28;45510;-63
2022/07/13 02:21:58;;;;;;;;;11.67;10.67;;;;;27.93;27.58;101577.00;4972488;28;45446;-66
2022/07/13 02:24:23;;;;;;;;;12.33;10.33;;;;;27.88;27.79;101565.22;4973035;28;45286;-65
2022/07/13 02:26:49;;;;;;;;;12.33;11.00;;;;;27.87;27.54;101571.69;4972864;28;58378;-64
2022/07/13 02:29:15;;;;;;;;;12.33;9.33;;;;;27.51;27.97;101506.06;4972817;28;45679;-65
2022/07/13 02:31:40;;;;;;;;;14.33;10.67;;;;;27.90;28.30;101572.50;4972667;28;45270;-64
2022/07/13 02:34:06;;;;;;;;;16.00;11.67;;;;;27.89;27.96;101570.69;4973337;28;45417;-65
2022/07/13 02:36:31;;;;;;;;;10.00;10.00;;;;;27.83;28.44;101568.13;4972235;28;45676;-66
2022/07/13 02:38:56;;;;;;;;;13.67;11.00;;;;;27.87;28.65;101572.59;4972718;28;45354;-63
2022/07/13 02:41:22;;;;;;;;;9.00;8.33;;;;;27.87;28.12;101567.09;4972434;28;45550;-64
2022/07/13 02:43:48;;;;;;;;;13.33;10.33;;;;;27.82;28.57;101559.94;4972867;28;45497;-64
2022/07/13 02:46:14;;;;;;;;;14.00;11.00;;;;;27.85;28.66;101569.00;4972596;28;45941;-64
2022/07/13 02:48:39;;;;;;;;;11.67;8.00;;;;;27.83;29.07;101559.88;4971058;28;45450;-64
2022/07/13 02:51:05;;;;;;;;;9.33;8.67;;;;;27.82;29.24;101566.34;4972137;28;45275;-64
2022/07/13 02:53:30;;;;;;;;;12.00;11.33;;;;;27.84;29.03;101566.31;4972883;28;45383;-65
2022/07/13 02:55:56;;;;;;;;;10.67;9.00;;;;;27.85;29.00;101555.28;4972510;28;46180;-65
2022/07/13 02:58:21;;;;;;;;;7.33;7.33;;;;;27.82;29.42;101563.59;4972142;28;45509;-64
2022/07/13 03:00:46;;;;;;;;;10.33;8.00;;;;;27.81;29.04;101564.53;4972739;28;45480;-64
2022/07/13 03:03:11;;;;;;;;;14.50;12.50;;;;;27.77;29.62;101563.75;4972751;28;45513;-64
2022/07/13 03:05:37;;;;;;;;;10.33;8.67;;;;;27.77;29.51;101566.50;4972233;28;47812;-63
2022/07/13 03:08:02;;;;;;;;;8.67;8.00;;;;;27.67;29.70;101562.25;4971892;28;49743;-65
2022/07/13 03:10:28;;;;;;;;;13.33;9.67;;;;;27.66;29.41;101556.81;4972269;28;45303;-65
2022/07/13 03:12:54;;;;;;;;;8.00;7.00;;;;;27.50;29.43;101535.31;4972558;28;45447;-66
2022/07/13 03:15:20;;;;;;;;;7.00;6.67;;;;;27.63;29.55;101559.66;4972230;28;45522;-66
2022/07/13 03:17:45;;;;;;;;;8.67;7.67;;;;;27.72;29.56;101568.50;4971926;28;45272;-66
2022/07/13 03:20:11;;;;;;;;;10.00;8.00;;;;;27.62;29.65;101550.53;4972301;28;45292;-65
2022/07/13 03:22:37;;;;;;;;;10.00;7.00;;;;;27.61;30.03;101548.72;4972258;28;45717;-62
2022/07/13 03:25:04;;;;;;;;;8.33;8.00;;;;;27.71;29.97;101572.19;4971786;28;46296;-64
2022/07/13 03:27:29;;;;;;;;;6.67;6.67;;;;;27.72;29.77;101570.34;4971953;28;45378;-63
2022/07/13 03:29:55;;;;;;;;;6.00;6.00;;;;;27.47;29.89;101521.72;4972093;28;45287;-64
2022/07/13 03:32:20;;;;;;;;;8.33;7.00;;;;;27.48;29.61;101525.34;4972394;28;45367;-65
2022/07/13 03:34:45;;;;;;;;;8.33;6.00;;;;;27.56;30.02;101546.13;4971880;28;46158;-63
2022/07/13 03:37:11;;;;;;;;;6.33;5.00;;;;;27.59;29.81;101556.13;4971871;28;45484;-61
2022/07/13 03:39:37;;;;;;;;;6.67;6.00;;;;;27.64;30.11;101565.09;4971802;28;45385;-63
2022/07/13 03:42:02;;;;;;;;;7.33;5.33;;;;;27.64;30.35;101565.09;4971997;28;45596;-64
2022/07/13 03:44:28;;;;;;;;;5.67;5.67;;;;;27.64;29.97;101561.47;4971886;28;45490;-62
2022/07/13 03:46:53;;;;;;;;;8.00;6.67;;;;;27.52;30.09;101549.00;4971728;28;45436;-65
2022/07/13 03:49:18;;;;;;;;;8.00;8.00;;;;;27.60;30.12;101563.38;4971713;28;46738;-63
2022/07/13 03:51:46;;;;;;;;;9.33;6.00;;;;;27.47;30.48;101545.50;4971771;28;45410;-66
2022/07/13 03:54:11;;;;;;;;;8.00;7.00;;;;;27.60;30.06;101574.34;4971273;28;45456;-63
2022/07/13 03:56:36;;;;;;;;;8.33;6.00;;;;;27.61;30.20;101576.16;4971567;28;45302;-64
2022/07/13 03:59:02;;;;;;;;;9.00;7.00;;;;;27.62;30.25;101577.06;4971929;28;45699;-63
2022/07/13 04:01:27;;;;;;;;;8.00;8.00;;;;;27.64;30.01;101566.94;4971935;28;45420;-63
2022/07/13 04:03:53;;;;;;;;;7.67;7.00;;;;;27.64;30.07;101567.84;4971567;28;46170;-65
2022/07/13 04:06:18;;;;;;;;;5.00;5.00;;;;;27.63;29.90;101571.53;4971344;28;45363;-64
2022/07/13 04:08:44;;;;;;;;;7.67;6.00;;;;;27.64;29.76;101575.19;4971643;28;45306;-66
2022/07/13 04:11:09;;;;;;;;;6.00;6.00;;;;;27.50;29.66;101549.03;4971983;28;45532;-65
2022/07/13 04:13:35;;;;;;;;;6.67;6.33;;;;;27.66;29.65;101578.78;4971299;28;47029;-65
2022/07/13 04:16:00;;;;;;;;;9.00;7.67;;;;;27.30;29.48;101510.38;4971107;28;45379;-63
2022/07/13 04:18:25;;;;;;;;;7.00;5.33;;;;;27.52;28.78;101555.41;4971090;28;45506;-62
2022/07/13 04:20:51;;;;;;;;;10.33;10.33;;;;;27.62;29.36;101567.00;4972052;28;45569;-63
2022/07/13 04:23:16;;;;;;;;;6.00;6.00;;;;;27.63;29.14;101573.38;4971073;28;46588;-64
2022/07/13 04:25:41;;;;;;;;;6.67;5.33;;;;;27.47;29.01;101551.91;4971203;28;45359;-64
2022/07/13 04:28:07;;;;;;;;;7.00;6.00;;;;;27.56;29.21;101569.94;4971515;28;45412;-67
2022/07/13 04:30:32;;;;;;;;;9.00;9.00;;;;;27.56;28.94;101575.41;4971375;28;45401;-64
2022/07/13 04:32:57;;;;;;;;;9.33;8.33;;;;;27.59;29.11;101567.09;4971014;28;45445;-63
2022/07/13 04:35:23;;;;;;;;;8.00;8.00;;;;;27.60;29.16;101570.72;4970942;28;45505;-64
2022/07/13 04:37:48;;;;;;;;;6.67;4.33;;;;;27.55;28.86;101562.63;4971135;28;45650;-66
2022/07/13 04:40:14;;;;;;;;;7.00;5.67;;;;;27.58;28.65;101574.41;4971662;28;45571;-64
2022/07/13 04:42:39;;;;;;;;;7.00;5.00;;;;;27.61;28.51;101559.69;4971251;28;45440;-66
2022/07/13 04:45:05;;;;;;;;;7.00;4.00;;;;;27.51;28.37;101545.38;4970825;28;45402;-63
2022/07/13 04:47:30;;;;;;;;;7.33;4.67;;;;;27.62;28.37;101557.84;4971199;28;45381;-64
2022/07/13 04:49:56;;;;;;;;;6.67;6.00;;;;;27.61;28.39;101558.81;4970823;28;45447;-63
2022/07/13 04:52:21;;;;;;;;;5.33;5.00;;;;;27.62;28.58;101563.34;4970530;28;46179;-66
2022/07/13 04:54:47;;;;;;;;;6.33;5.33;;;;;27.59;28.43;101558.84;4970810;28;45394;-64
2022/07/13 04:57:12;;;;;;;;;4.67;4.67;;;;;27.59;28.86;101567.09;4971022;28;45733;-63
2022/07/13 04:59:37;;;;;;;;;7.00;6.67;;;;;27.57;28.92;101566.25;4970993;28;45517;-63
2022/07/13 05:02:02;;;;;;;;;10.67;7.00;;;;;27.61;28.90;101561.56;4970632;28;46079;-66
2022/07/13 05:04:28;;;;;;;;;6.67;5.00;;;;;27.56;28.86;101557.09;4970675;28;48988;-64
2022/07/13 05:06:53;;;;;;;;;3.67;3.67;;;;;27.62;28.46;101567.00;4971919;28;45369;-62
2022/07/13 05:09:18;;;;;;;;;5.67;5.67;;;;;27.45;28.95;101526.34;4966123;28;45562;-64
2022/07/13 05:11:44;;;;;;;;;6.00;6.00;;;;;27.64;28.37;101566.94;4972310;28;47937;-64
2022/07/13 05:14:09;;;;;;;;;8.00;7.00;;;;;27.50;28.52;101537.19;4973747;28;45445;-64
2022/07/13 05:16:35;;;;;;;;;7.00;6.00;;;;;27.66;28.47;101562.31;4973717;28;45530;-62
2022/07/13 05:19:01;;;;;;;;;9.00;9.00;;;;;27.55;28.05;101544.34;4973242;28;45385;-63
2022/07/13 05:21:26;;;;;;;;;9.67;6.33;;;;;27.66;28.45;101563.19;4973105;28;45401;-65
2022/07/13 05:23:52;;;;;;;;;6.67;5.00;;;;;27.71;28.30;101574.03;4973192;28;45414;-64
2022/07/13 05:26:17;;;;;;;;;5.33;5.33;;;;;27.73;28.01;101578.50;4973623;28;45445;-64
2022/07/13 05:28:42;;;;;;;;;5.33;5.33;;;;;27.76;28.19;101567.44;4973858;28;45527;-65
2022/07/13 05:31:08;;;;;;;;;4.00;4.00;;;;;27.52;27.83;101527.03;4973134;28;46016;-61
2022/07/13 05:33:33;;;;;;;;;8.33;7.33;;;;;27.75;28.40;101570.22;4973009;28;45572;-62
2022/07/13 05:36:03;;;;;;;;;34.75;33.00;;;;;27.75;28.52;101571.16;4972544;28;45419;-63
2022/07/13 05:38:28;;;;;;;;;10.00;10.00;;;;;27.77;28.16;101574.72;4972914;28;45574;-62
2022/07/13 05:40:53;;;;;;;;;5.00;5.00;;;;;27.82;28.65;101579.16;4972688;28;45443;-62
2022/07/13 05:43:19;;;;;;;;;6.00;6.00;;;;;27.81;28.87;101578.28;4973121;28;45444;-65
2022/07/13 05:45:44;;;;;;;;;6.00;6.00;;;;;27.79;28.99;101571.94;4973172;28;45284;-63
2022/07/13 05:48:09;;;;;;;;;8.33;7.00;;;;;27.86;28.94;101581.75;4972813;28;45448;-65
2022/07/13 05:50:35;;;;;;;;;8.00;6.33;;;;;27.86;28.84;101583.63;4972984;28;46016;-63
2022/07/13 05:53:00;;;;;;;;;5.67;3.67;;;;;27.73;29.26;101561.16;4972669;28;45443;-63
2022/07/13 05:55:26;;;;;;;;;7.00;6.00;;;;;27.87;29.58;101583.56;4972606;28;45486;-62
2022/07/13 05:57:51;;;;;;;;;7.00;7.00;;;;;27.91;29.23;101582.50;4973419;28;45601;-63
2022/07/13 06:00:16;;;;;;;;;9.67;7.00;;;;;27.94;29.29;101587.06;4972420;28;46387;-65
2022/07/13 06:02:42;;;;;;;;;8.00;8.00;;;;;27.96;29.52;101585.16;4972835;28;45422;-63
2022/07/13 06:05:08;;;;;;;;;6.67;6.33;;;;;28.01;29.32;101585.88;4972900;28;45470;-64
2022/07/13 06:07:34;;;;;;;;;7.00;7.00;;;;;27.99;29.33;101575.91;4972829;28;45513;-65
2022/07/13 06:10:01;;;;;;;;;9.33;8.33;;;;;28.02;29.71;101587.69;4972306;28;46041;-62
2022/07/13 06:12:27;;;;;;;;;6.00;5.67;;;;;27.89;28.88;101561.56;4972238;28;45532;-64
2022/07/13 06:14:52;;;;;;;;;6.33;6.33;;;;;28.06;28.87;101589.38;4972260;28;45467;-63
2022/07/13 06:17:18;;;;;;;;;10.00;7.00;;;;;27.64;29.03;101509.31;4973153;28;45451;-64
2022/07/13 06:19:44;;;;;;;;;7.33;7.33;;;;;28.10;28.72;101590.19;4972191;28;45651;-64
2022/07/13 06:22:09;;;;;;;;;6.67;6.67;;;;;28.09;28.53;101582.91;4972292;28;45549;-63
2022/07/13 06:24:34;;;;;;;;;4.00;4.00;;;;;28.11;27.82;101580.97;4972247;28;45429;-65
2022/07/13 06:26:59;;;;;;;;;7.33;6.00;;;;;28.12;27.47;101586.44;4972529;28;45669;-63
2022/07/13 06:29:25;;;;;;;;;7.00;2.00;;;;;28.22;27.81;101591.63;4971598;28;51095;-64
2022/07/13 06:31:50;;;;;;;;;7.67;5.33;;;;;28.21;28.44;101584.31;4972237;28;45349;-65
2022/07/13 06:34:15;;;;;;;;;9.67;9.67;;;;;28.31;28.31;101589.47;4971835;28;45549;-62
2022/07/13 06:36:41;;;;;;;;;10.00;8.67;;;;;28.27;27.72;101573.13;4972210;28;45530;-64
2022/07/13 06:39:06;;;;;;;;;8.67;7.67;;;;;28.42;27.64;101588.19;4972124;28;45485;-62
2022/07/13 06:41:31;;;;;;;;;8.67;8.33;;;;;28.47;28.01;101592.56;4971968;28;45420;-62
2022/07/13 06:43:57;;;;;;;;;4.67;4.67;;;;;28.10;27.17;101514.16;4970547;27;45466;-63
2022/07/13 06:46:23;;;;;;;;;7.00;6.00;;;;;28.52;27.33;101580.50;4972210;28;45597;-62
2022/07/13 06:48:48;;;;;;;;;12.67;8.67;;;;;28.54;27.24;101579.50;4972196;28;45585;-65
2022/07/13 06:51:13;;;;;;;;;10.67;6.00;;;;;28.52;27.03;101566.78;4971430;28;45429;-62
2022/07/13 06:53:39;;;;;;;;;8.00;8.00;;;;;28.50;26.71;101558.56;4971744;28;45369;-66
2022/07/13 06:56:04;;;;;;;;;7.00;7.00;;;;;28.67;26.83;101582.75;4971861;28;45420;-66
2022/07/13 06:58:29;;;;;;;;;8.33;7.33;;;;;28.70;26.56;101588.13;4971808;28;45338;-62
2022/07/13 07:00:55;;;;;;;;;8.33;7.00;;;;;28.77;26.55;101597.06;4971513;28;45443;-63
2022/07/13 07:03:20;;;;;;;;;5.00;5.00;;;;;28.80;26.44;101585.94;4971416;28;45308;-64
2022/07/13 07:05:46;;;;;;;;;3.67;3.67;;;;;28.82;26.70;101587.69;4971813;28;45291;-64
2022/07/13 07:08:11;;;;;;;;;8.67;6.00;;;;;28.88;26.51;101593.94;4971552;28;45485;-65
2022/07/13 07:10:37;;;;;;;;;5.33;5.33;;;;;28.88;26.80;101585.69;4971442;28;45389;-64
2022/07/13 07:13:03;;;;;;;;;4.67;4.67;;;;;28.98;26.42;101590.75;4972113;28;45586;-63
2022/07/13 07:15:28;;;;;;;;;8.00;5.67;;;;;29.07;26.49;101596.88;4972145;28;45492;-65
2022/07/13 07:17:53;;;;;;;;;6.33;5.00;;;;;29.14;26.55;101587.44;4970775;28;46284;-65
2022/07/13 07:20:19;;;;;;;;;9.00;6.33;;;;;29.05;26.42;101555.66;4971470;28;45406;-63
2022/07/13 07:22:46;;;;;;;;;6.00;6.00;;;;;29.28;25.74;101589.69;4971563;28;45322;-65
2022/07/13 07:25:12;;;;;;;;;8.33;5.33;;;;;29.36;25.48;101574.66;4971803;28;45468;-64
2022/07/13 07:27:40;;;;;;;;;5.67;5.67;;;;;29.49;25.66;101585.22;4970417;28;45476;-65
2022/07/13 07:30:06;;;;;;;;;8.67;4.67;;;;;29.56;25.79;101587.63;4971441;28;45333;-64
2022/07/13 07:32:31;;;;;;;;;6.00;6.00;;;;;29.72;25.37;101598.06;4971347;28;45517;-65
2022/07/13 07:34:57;;;;;;;;;6.00;6.00;;;;;29.77;25.16;101590.50;4970087;28;45379;-67
2022/07/13 07:37:22;;;;;;;;;7.33;5.00;;;;;29.83;25.29;101595.81;4971120;28;46168;-65
2022/07/13 07:39:51;;;;;;;;;7.67;6.33;;;;;29.71;24.98;101580.63;4971300;28;45789;-65
2022/07/13 07:42:17;;;;;;;;;6.33;4.67;;;;;29.78;25.32;101589.56;4971511;28;45547;-63
2022/07/13 07:44:43;;;;;;;;;10.00;4.67;;;;;29.74;24.58;101586.00;4971492;28;45365;-63
2022/07/13 07:47:08;;;;;;;;;4.00;4.00;;;;;29.69;25.39;101587.16;4971002;28;46563;-63
2022/07/13 07:49:34;;;;;;;;;7.00;6.00;;;;;29.64;25.19;101578.19;4971093;28;45410;-65
2022/07/13 07:52:00;;;;;;;;;6.00;6.00;;;;;29.68;25.18;101585.34;4970911;28;45233;-67
2022/07/13 07:54:25;;;;;;;;;9.33;6.00;;;;;29.58;25.42;101568.31;4971413;28;45566;-63
2022/07/13 07:56:50;;;;;;;;;22.00;19.00;;;;;29.70;25.33;101580.69;4970779;28;46342;-65
2022/07/13 07:59:16;;;;;;;;;8.67;7.67;;;;;29.73;25.89;101577.81;4970675;28;46212;-65
2022/07/13 08:01:42;;;;;;;;;7.67;6.00;;;;;29.79;25.41;101582.22;4969409;28;45384;-62
2022/07/13 08:04:08;;;;;;;;;9.00;6.00;;;;;29.80;25.89;101581.22;4968881;28;45501;-63
2022/07/13 08:06:33;;;;;;;;;7.67;7.67;;;;;29.80;25.86;101576.66;4970583;28;46282;-64
2022/07/13 08:08:59;;;;;;;;;7.67;6.33;;;;;29.79;25.71;101582.22;4969151;28;45526;-62
2022/07/13 08:11:24;;;;;;;;;6.33;5.33;;;;;29.77;25.72;101579.50;4971162;28;45249;-63
2022/07/13 08:13:51;;;;;;;;;9.00;7.33;;;;;29.80;25.54;101584.91;4971254;28;45510;-64
2022/07/13 08:16:17;;;;;;;;;7.00;5.67;;;;;29.71;25.57;101574.22;4970593;28;45503;-64
2022/07/13 08:18:44;;;;;;;;;4.33;4.00;;;;;29.76;25.44;101575.84;4970615;28;45561;-64
2022/07/13 08:21:10;;;;;;;;;6.33;6.33;;;;;29.42;25.91;101518.50;4970396;28;45363;-66
2022/07/13 08:23:54;;;;;;;;;5.00;5.00;;;;;29.79;25.37;101577.59;4970400;28;45321;-63
2022/07/13 08:26:28;;;;;;;;;5.67;5.67;;;;;29.75;25.42;101582.31;4969230;28;47128;-63
2022/07/13 08:28:55;;;;;;;;;14.33;7.00;;;;;29.39;25.14;101518.59;4970642;28;45456;-62
2022/07/13 08:31:22;;;;;;;;;6.00;4.33;;;;;29.68;25.48;101566.06;4970655;28;46177;-64
2022/07/13 08:39:17;;;;;;;;;7.00;5.00;;;;;29.61;25.72;101568.19;4970438;28;45441;-63
2022/07/13 08:41:43;;;;;;;;;5.67;4.67;;;;;29.74;25.60;101585.13;4972846;28;45389;-63
2022/07/13 08:44:08;;;;;;;;;6.33;3.00;;;;;29.85;25.82;101577.34;4973672;28;45437;-63
2022/07/13 08:46:34;;;;;;;;;5.00;5.00;;;;;29.96;25.71;101574.13;4972834;28;46061;-62
2022/07/13 08:49:00;;;;;;;;;3.00;3.00;;;;;30.14;25.19;101576.13;4973356;28;45268;-64
2022/07/13 08:51:26;;;;;;;;;6.00;4.00;;;;;30.16;24.95;101551.25;4973273;28;45561;-63
2022/07/13 08:53:56;;;;;;;;;8.67;4.67;;;;;30.42;24.86;101568.56;4973242;28;45359;-63
2022/07/13 08:56:22;;;;;;;;;3.00;1.33;;;;;30.41;24.55;101547.44;4973102;28;47184;-62
2022/07/13 08:58:47;;;;;;;;;6.67;4.00;;;;;30.65;24.15;101567.53;4973053;28;45331;-64
2022/07/13 09:01:14;;;;;;;;;7.00;5.00;;;;;30.43;24.29;101510.56;4973311;28;45549;-62
2022/07/13 09:03:40;;;;;;;;;4.33;3.67;;;;;30.83;24.04;101566.69;4973254;28;45561;-65
2022/07/13 09:06:05;;;;;;;;;4.67;4.67;;;;;31.00;23.50;101573.31;4964937;28;46523;-65
2022/07/13 09:08:40;;;;;;;;;7.33;5.00;;;;;31.09;23.53;101567.41;4973135;28;45432;-63
2022/07/13 09:11:06;;;;;;;;;5.00;5.00;;;;;31.20;23.14;101567.78;4967935;28;45334;-65
2022/07/13 09:13:41;;;;;;;;;5.00;5.00;;;;;31.32;23.20;101573.69;4973555;28;45286;-65
2022/07/13 09:16:12;;;;;;;;;6.33;6.33;;;;;31.38;22.95;101568.78;4967977;28;46144;-63
2022/07/13 09:18:38;;;;;;;;;7.00;5.33;;;;;31.47;22.94;101566.53;4974643;28;45430;-64
2022/07/13 09:21:03;;;;;;;;;5.33;4.00;;;;;31.41;23.04;101543.78;4972953;28;45358;-63
2022/07/13 09:23:29;;;;;;;;;4.00;3.00;;;;;31.58;22.85;101561.44;4973449;28;45362;-62
2022/07/13 09:25:55;;;;;;;;;3.33;3.33;;;;;31.66;22.91;101561.03;4973032;28;45265;-63
2022/07/13 09:28:21;;;;;;;;;8.67;6.67;;;;;31.76;23.15;101557.75;4972780;28;45310;-65
2022/07/13 09:30:46;;;;;;;;;6.67;4.67;;;;;31.84;23.08;101556.47;4973047;28;45381;-64
2022/07/13 09:33:12;;;;;;;;;3.67;3.67;;;;;31.95;22.84;101554.06;4972827;28;45494;-62
2022/07/13 09:35:46;;;;;;;;;5.67;5.67;;;;;32.03;22.90;101560.09;4972931;28;46047;-64
2022/07/13 09:38:37;;;;;;;;;3.67;3.67;;;;;32.09;22.60;101562.56;4969255;28;45757;-64
2022/07/13 09:41:16;;;;;;;;;6.00;5.00;;;;;32.15;22.36;101559.47;4969515;28;45416;-61
2022/07/13 09:47:04;;;;;;;;;5.50;5.50;;;;;32.29;22.02;101555.09;4984768;28;45804;-65
2022/07/13 09:49:29;;;;;;;;;6.67;4.67;;;;;32.35;22.25;101563.06;4972222;28;45278;-66
2022/07/13 09:51:57;;;;;;;;;14.00;11.67;;;;;32.40;22.36;101558.19;4972550;28;45851;-64
2022/07/13 09:54:26;;;;;;;;;5.33;5.33;;;;;32.43;22.39;101559.91;4972696;28;45330;-62
2022/07/13 09:56:55;;;;;;;;;5.67;4.00;;;;;32.43;22.03;101554.38;4972346;28;45495;-63
2022/07/13 09:59:21;;;;;;;;;4.67;4.00;;;;;32.48;22.27;101564.22;4972656;28;45460;-67
2022/07/13 10:01:47;;;;;;;;;5.00;5.00;;;;;32.55;22.11;101555.59;4972517;28;45461;-63
2022/07/13 10:04:14;;;;;;;;;8.00;6.00;;;;;32.63;21.96;101545.94;4972573;28;45501;-64
2022/07/13 10:06:40;;;;;;;;;5.33;5.33;;;;;32.35;22.49;101490.28;4972121;28;45571;-64
2022/07/13 10:09:06;;;;;;;;;6.33;6.33;;;;;32.76;22.42;101548.06;4972206;28;45382;-64
2022/07/13 10:11:31;;;;;;;;;8.33;6.67;;;;;32.82;21.83;101543.09;4972467;28;45231;-65
2022/07/13 10:13:57;;;;;;;;;7.67;5.33;;;;;32.86;21.81;101544.69;4972538;28;45389;-66
2022/07/13 10:16:27;;;;;;;;;3.33;3.33;;;;;32.84;21.83;101532.81;4971818;28;46216;-65
2022/07/13 10:18:54;;;;;;;;;4.33;4.33;;;;;32.94;21.96;101543.38;4971759;28;45637;-65
2022/07/13 10:21:33;;;;;;;;;17.75;16.25;;;;;32.94;21.32;101529.56;4971633;28;45362;-63
2022/07/13 10:23:59;;;;;;;;;5.33;5.00;;;;;33.03;21.01;101543.78;4972173;28;45496;-62
2022/07/13 10:26:25;;;;;;;;;11.33;8.00;;;;;33.04;21.56;101536.34;4972140;28;46582;-62
2022/07/13 10:29:11;;;;;;;;;4.00;4.00;;;;;33.06;21.51;101535.31;4971904;28;45455;-65
2022/07/13 10:31:40;;;;;;;;;10.00;8.00;;;;;33.12;21.75;101544.25;4978785;28;45524;-64
2022/07/13 10:34:07;;;;;;;;;5.00;4.33;;;;;33.10;21.48;101532.34;4965974;28;45507;-64
2022/07/13 10:36:48;;;;;;;;;4.00;4.00;;;;;33.21;21.02;101533.59;4968174;28;45426;-62
2022/07/13 10:39:14;;;;;;;;;4.00;4.00;;;;;33.21;21.10;101529.91;4967037;28;45536;-62
2022/07/13 10:42:07;;;;;;;;;5.00;5.00;;;;;33.29;21.83;101535.00;4972013;28;45481;-64
2022/07/13 10:44:32;;;;;;;;;4.33;4.33;;;;;33.30;21.17;101529.38;4972355;28;45522;-65
2022/07/13 10:46:59;;;;;;;;;7.00;7.00;;;;;33.30;21.84;101514.66;4971992;28;46139;-64
2022/07/13 10:49:31;;;;;;;;;8.67;4.67;;;;;33.47;21.13;101536.72;4971864;28;45499;-67
2022/07/13 10:52:16;;;;;;;;;3.67;3.67;;;;;33.42;21.20;101511.16;4971203;28;45535;-64
2022/07/13 10:55:02;;;;;;;;;7.67;7.67;;;;;33.54;21.24;101527.09;4966267;28;45346;-64
2022/07/13 10:57:28;;;;;;;;;6.00;6.00;;;;;33.58;21.01;101538.88;4968012;28;46161;-65
2022/07/13 11:00:00;;;;;;;;;3.67;3.67;;;;;33.58;20.88;101530.56;4971582;28;45513;-62
2022/07/13 11:02:49;;;;;;;;;7.00;5.00;;;;;33.61;21.30;101533.16;4967973;28;45453;-65
2022/07/13 11:05:20;;;;;;;;;4.67;4.00;;;;;33.63;21.42;101531.19;4972131;28;45397;-64
2022/07/13 11:07:50;;;;;;;;;9.33;7.33;;;;;33.66;21.34;101532.88;4971127;28;46190;-62
2022/07/13 11:10:28;;;;;;;;;5.00;5.00;;;;;33.65;20.58;101523.66;4993803;28;45401;-65
2022/07/13 11:12:58;;;;;;;;;5.00;5.00;;;;;33.68;21.22;101528.16;4966765;28;45603;-62
2022/07/13 11:15:40;;;;;;;;;4.67;4.67;;;;;33.55;21.06;101500.25;4971430;28;45372;-62
2022/07/13 11:18:21;;;;;;;;;5.33;5.33;;;;;33.63;21.45;101521.97;4970932;28;46653;-64
2022/07/13 11:21:02;;;;;;;;;3.00;3.00;;;;;33.66;21.64;101522.69;4971068;28;45503;-61
2022/07/13 11:26:48;;;;;;;;;3.67;3.67;;;;;33.63;22.00;101513.66;4971212;28;45365;-64
2022/07/13 11:29:31;;;;;;;;;4.67;3.33;;;;;33.68;22.15;101519.84;4965379;28;46048;-64
2022/07/13 11:31:59;;;;;;;;;5.33;5.00;;;;;33.71;21.81;101523.34;4967691;28;45306;-64